createdAt,value
2019-05-20T00:00:20.443Z,14.57
2019-05-20T00:02:48.787Z,13.93
2019-05-20T00:05:17.160Z,15.53
2019-05-20T00:07:45.882Z,14.00
2019-05-20T00:10:14.506Z,14.37
2019-05-20T00:12:43.163Z,13.37
2019-05-20T00:15:11.656Z,13.20
2019-05-20T00:17:39.997Z,14.00
2019-05-20T00:20:09.083Z,13.20
2019-05-20T00:22:37.418Z,14.50
2019-05-20T00:25:05.771Z,13.90
2019-05-20T00:27:34.412Z,14.33
2019-05-20T00:30:03.229Z,14.70
2019-05-20T00:32:40.680Z,15.13
2019-05-20T00:35:01.917Z,14.47
2019-05-20T00:37:30.592Z,13.83
2019-05-20T00:39:58.955Z,12.80
2019-05-20T00:42:27.296Z,13.50
2019-05-20T00:44:55.680Z,13.33
2019-05-20T00:47:24.040Z,15.97
2019-05-20T00:49:52.405Z,16.70
2019-05-20T00:52:21.032Z,14.50
2019-05-20T00:54:49.392Z,13.57
2019-05-20T00:57:17.760Z,15.67
2019-05-20T00:59:46.159Z,16.27
2019-05-20T01:02:14.531Z,15.67
2019-05-20T01:04:43.188Z,18.07
2019-05-20T01:07:11.636Z,17.30
2019-05-20T01:09:40.382Z,15.30
2019-05-20T01:12:08.808Z,18.20
2019-05-20T01:14:37.154Z,15.33
2019-05-20T01:17:05.606Z,16.97
2019-05-20T01:19:34.140Z,16.97
2019-05-20T01:22:02.495Z,17.90
2019-05-20T01:24:30.857Z,16.13
2019-05-20T01:26:59.303Z,18.70
2019-05-20T01:29:27.660Z,16.73
2019-05-20T01:31:56.095Z,16.17
2019-05-20T01:34:24.440Z,15.80
2019-05-20T01:36:52.811Z,17.10
2019-05-20T01:39:21.451Z,15.37
2019-05-20T01:41:49.886Z,14.50
2019-05-20T01:44:18.373Z,15.10
2019-05-20T01:46:46.770Z,15.60
2019-05-20T01:49:15.111Z,15.17
2019-05-20T01:51:43.829Z,17.47
2019-05-20T01:54:12.865Z,15.20
2019-05-20T01:56:41.287Z,15.73
2019-05-20T01:59:09.697Z,15.00
2019-05-20T02:01:38.154Z,15.00
2019-05-20T02:04:06.726Z,14.63
2019-05-20T02:06:35.149Z,15.93
2019-05-20T02:09:05.040Z,15.87
2019-05-20T02:11:33.399Z,13.60
2019-05-20T02:14:06.353Z,15.30
2019-05-20T02:16:34.866Z,14.03
2019-05-20T02:19:04.127Z,17.07
2019-05-20T02:21:33.712Z,14.43
2019-05-20T02:24:03.125Z,15.27
2019-05-20T02:26:31.943Z,15.10
2019-05-20T02:29:01.198Z,15.67
2019-05-20T02:31:30.070Z,15.73
2019-05-20T02:33:59.072Z,15.20
2019-05-20T02:36:28.220Z,14.80
2019-05-20T02:38:57.091Z,15.47
2019-05-20T02:41:26.328Z,16.50
2019-05-20T02:43:55.160Z,15.10
2019-05-20T02:46:24.487Z,15.53
2019-05-20T02:48:53.355Z,16.53
2019-05-20T02:51:31.586Z,17.07
2019-05-20T02:54:01.842Z,15.73
2019-05-20T02:56:31.293Z,17.33
2019-05-20T02:59:00.317Z,17.17
2019-05-20T03:01:29.736Z,16.60
2019-05-20T03:04:10.743Z,15.47
2019-05-20T03:06:29.076Z,15.97
2019-05-20T03:08:57.881Z,15.07
2019-05-20T03:11:27.044Z,15.20
2019-05-20T03:13:55.921Z,15.50
2019-05-20T03:16:24.739Z,16.57
2019-05-20T03:18:53.548Z,17.60
2019-05-20T03:21:22.799Z,18.10
2019-05-20T03:23:51.991Z,16.07
2019-05-20T03:26:20.885Z,15.73
2019-05-20T03:28:49.782Z,19.17
2019-05-20T03:31:18.877Z,18.27
2019-05-20T03:33:47.895Z,17.83
2019-05-20T03:36:16.728Z,18.13
2019-05-20T03:38:45.682Z,17.93
2019-05-20T03:41:14.840Z,15.80
2019-05-20T03:43:43.693Z,15.83
2019-05-20T03:46:12.521Z,14.67
2019-05-20T03:48:41.383Z,14.47
2019-05-20T03:51:10.216Z,16.50
2019-05-20T03:53:39.188Z,16.43
2019-05-20T03:56:07.995Z,15.33
2019-05-20T03:58:36.899Z,17.20
2019-05-20T04:01:06.110Z,16.40
2019-05-20T04:03:35.302Z,18.80
2019-05-20T04:06:04.526Z,17.03
2019-05-20T04:08:33.335Z,18.17
2019-05-20T04:11:02.225Z,18.20
2019-05-20T04:13:34.480Z,18.00
2019-05-20T04:16:01.989Z,16.43
2019-05-20T04:18:30.939Z,15.43
2019-05-20T04:20:59.732Z,17.20
2019-05-20T04:23:28.923Z,16.33
2019-05-20T04:25:57.799Z,17.43
2019-05-20T04:28:27.395Z,15.13
2019-05-20T04:30:56.682Z,15.17
2019-05-20T04:33:25.052Z,16.20
2019-05-20T04:35:53.837Z,16.13
2019-05-20T04:38:22.684Z,15.83
2019-05-20T04:40:51.503Z,17.20
2019-05-20T04:43:20.457Z,15.83
2019-05-20T04:45:50.456Z,17.13
2019-05-20T04:48:19.342Z,16.93
2019-05-20T04:50:48.227Z,18.60
2019-05-20T04:53:17.056Z,19.00
2019-05-20T04:55:46.377Z,17.63
2019-05-20T04:58:15.282Z,18.80
2019-05-20T05:00:52.498Z,17.87
2019-05-20T05:03:21.562Z,19.37
2019-05-20T05:05:51.572Z,17.13
2019-05-20T05:08:21.116Z,18.03
2019-05-20T05:10:50.486Z,18.03
2019-05-20T05:13:19.959Z,17.63
2019-05-20T05:15:49.042Z,17.70
2019-05-20T05:18:18.063Z,17.37
2019-05-20T05:20:47.236Z,18.83
2019-05-20T05:23:16.509Z,18.07
2019-05-20T05:25:45.761Z,18.53
2019-05-20T05:28:14.780Z,19.00
2019-05-20T05:30:46.098Z,20.00
2019-05-20T05:33:15.069Z,20.53
2019-05-20T05:35:52.853Z,20.10
2019-05-20T05:38:15.106Z,18.30
2019-05-20T05:40:43.979Z,19.50
2019-05-20T05:43:13.163Z,19.77
2019-05-20T05:45:41.995Z,17.87
2019-05-20T05:48:10.898Z,21.20
2019-05-20T05:50:39.789Z,19.60
2019-05-20T05:53:08.621Z,17.83
2019-05-20T05:55:37.521Z,19.47
2019-05-20T05:58:08.709Z,19.80
2019-05-20T06:00:37.066Z,19.73
2019-05-20T06:03:05.922Z,18.60
2019-05-20T06:05:34.734Z,19.30
2019-05-20T06:08:03.667Z,20.53
2019-05-20T06:10:35.517Z,20.87
2019-05-20T06:13:03.144Z,20.53
2019-05-20T06:15:32.192Z,20.93
2019-05-20T06:18:01.074Z,22.60
2019-05-20T06:20:29.980Z,20.60
2019-05-20T06:22:58.895Z,18.57
2019-05-20T06:25:27.920Z,22.03
2019-05-20T06:27:56.703Z,21.70
2019-05-20T06:30:37.555Z,19.37
2019-05-20T06:33:06.428Z,19.10
2019-05-20T06:35:35.410Z,19.60
2019-05-20T06:38:06.425Z,19.37
2019-05-20T06:40:35.788Z,18.63
2019-05-20T06:43:04.836Z,20.30
2019-05-20T06:45:33.963Z,20.10
2019-05-20T06:48:02.774Z,19.47
2019-05-20T06:50:31.584Z,19.77
2019-05-20T06:53:00.505Z,18.97
2019-05-20T06:55:29.701Z,19.60
2019-05-20T06:57:58.503Z,20.07
2019-05-20T07:00:35.208Z,19.90
2019-05-20T07:03:04.901Z,17.43
2019-05-20T07:05:34.002Z,19.90
2019-05-20T07:08:03.498Z,19.73
2019-05-20T07:10:32.581Z,20.00
2019-05-20T07:13:01.485Z,20.60
2019-05-20T07:15:30.582Z,18.53
2019-05-20T07:17:59.466Z,18.07
2019-05-20T07:20:28.773Z,21.20
2019-05-20T07:22:57.975Z,19.40
2019-05-20T07:25:26.927Z,21.77
2019-05-20T07:27:55.746Z,20.63
2019-05-20T07:30:24.955Z,22.27
2019-05-20T07:32:54.143Z,19.80
2019-05-20T07:35:30.480Z,20.63
2019-05-20T07:37:53.797Z,20.33
2019-05-20T07:40:35.254Z,22.27
2019-05-20T07:43:05.018Z,21.80
2019-05-20T07:45:36.408Z,20.87
2019-05-20T07:48:06.293Z,21.10
2019-05-20T07:50:38.419Z,20.83
2019-05-20T07:53:07.752Z,21.07
2019-05-20T07:55:41.921Z,20.83
2019-05-20T07:58:12.892Z,22.20
2019-05-20T08:00:42.168Z,22.90
2019-05-20T08:03:11.122Z,22.27
2019-05-20T08:05:40.020Z,21.63
2019-05-20T08:08:09.254Z,22.30
2019-05-20T08:10:57.284Z,21.93
2019-05-20T08:13:26.188Z,23.00
2019-05-20T08:15:55.296Z,21.00
2019-05-20T08:18:24.173Z,21.27
2019-05-20T08:20:52.990Z,21.33
2019-05-20T08:23:21.909Z,23.93
2019-05-20T08:25:50.884Z,21.47
2019-05-20T08:28:19.837Z,23.00
2019-05-20T08:30:48.828Z,19.60
2019-05-20T08:33:17.721Z,22.27
2019-05-20T08:35:46.609Z,18.83
2019-05-20T08:38:15.582Z,19.50
2019-05-20T08:40:48.350Z,21.60
2019-05-20T08:43:15.420Z,21.27
2019-05-20T08:45:44.565Z,20.73
2019-05-20T08:48:13.380Z,18.17
2019-05-20T08:50:42.633Z,18.50
2019-05-20T08:53:11.461Z,18.50
2019-05-20T08:55:40.734Z,18.90
2019-05-20T08:58:09.686Z,18.83
2019-05-20T09:00:38.776Z,18.43
2019-05-20T09:03:07.668Z,17.83
2019-05-20T09:05:36.536Z,15.97
2019-05-20T09:08:05.512Z,17.07
2019-05-20T09:10:35.116Z,17.80
2019-05-20T09:13:04.090Z,19.03
2019-05-20T09:15:33.081Z,20.00
2019-05-20T09:18:02.053Z,19.77
2019-05-20T09:20:31.088Z,20.87
2019-05-20T09:23:02.620Z,18.30
2019-05-20T09:25:31.659Z,18.23
2019-05-20T09:28:01.268Z,18.37
2019-05-20T09:30:30.283Z,19.80
2019-05-20T09:32:59.208Z,17.87
2019-05-20T09:35:28.225Z,17.30
2019-05-20T09:37:57.231Z,17.23
2019-05-20T09:40:40.438Z,19.03
2019-05-20T09:43:09.655Z,17.60
2019-05-20T09:45:38.636Z,18.60
2019-05-20T09:48:08.299Z,15.30
2019-05-20T09:50:37.273Z,18.10
2019-05-20T09:53:07.548Z,16.70
2019-05-20T09:55:36.835Z,18.50
2019-05-20T09:58:06.426Z,19.20
2019-05-20T10:00:35.495Z,18.57
2019-05-20T10:03:05.830Z,18.40
2019-05-20T10:05:37.402Z,18.10
2019-05-20T10:08:06.310Z,18.53
2019-05-20T10:10:35.173Z,21.03
2019-05-20T10:13:04.546Z,18.70
2019-05-20T10:15:33.406Z,20.03
2019-05-20T10:18:02.298Z,19.60
2019-05-20T10:20:31.282Z,22.77
2019-05-20T10:23:00.483Z,22.50
2019-05-20T10:25:29.642Z,23.83
2019-05-20T10:27:58.657Z,22.77
2019-05-20T10:30:27.922Z,19.73
2019-05-20T10:32:56.749Z,22.20
2019-05-20T10:35:25.742Z,21.73
2019-05-20T10:37:54.633Z,20.60
2019-05-20T10:40:23.583Z,20.03
2019-05-20T10:42:52.416Z,18.20
2019-05-20T10:45:21.421Z,20.13
2019-05-20T10:47:50.320Z,21.80
2019-05-20T10:50:19.280Z,20.87
2019-05-20T10:52:48.105Z,20.50
2019-05-20T10:55:18.014Z,19.50
2019-05-20T10:57:47.173Z,18.90
2019-05-20T11:00:18.827Z,18.80
2019-05-20T11:02:47.780Z,17.07
2019-05-20T11:05:17.957Z,17.80
2019-05-20T11:07:47.968Z,16.13
2019-05-20T11:10:18.282Z,16.27
2019-05-20T11:12:47.515Z,14.97
2019-05-20T11:15:16.817Z,13.40
2019-05-20T11:17:45.755Z,15.40
2019-05-20T11:20:15.253Z,17.13
2019-05-20T11:22:44.093Z,17.03
2019-05-20T11:25:13.066Z,15.27
2019-05-20T11:27:42.304Z,12.90
2019-05-20T11:30:11.674Z,12.90
2019-05-20T11:32:40.568Z,12.13
2019-05-20T11:35:09.826Z,14.67
2019-05-20T11:37:38.666Z,11.17
2019-05-20T11:40:09.647Z,11.37
2019-05-20T11:42:39.423Z,11.77
2019-05-20T11:45:09.234Z,10.27
2019-05-20T11:47:38.217Z,11.73
2019-05-20T11:50:07.667Z,10.67
2019-05-20T11:52:36.663Z,10.90
2019-05-20T11:55:06.327Z,10.63
2019-05-20T11:57:35.364Z,12.67
2019-05-20T12:00:05.344Z,13.10
2019-05-20T12:02:34.168Z,13.43
2019-05-20T12:05:03.079Z,11.40
2019-05-20T12:07:31.967Z,12.20
2019-05-20T12:10:00.854Z,12.00
2019-05-20T12:12:29.669Z,13.07
2019-05-20T12:14:58.837Z,13.47
2019-05-20T12:17:27.910Z,12.50
2019-05-20T12:19:56.724Z,11.50
2019-05-20T12:22:25.601Z,13.67
2019-05-20T12:24:54.416Z,11.87
2019-05-20T12:27:23.293Z,12.30
2019-05-20T12:29:52.130Z,12.30
2019-05-20T12:32:20.935Z,12.53
2019-05-20T12:34:49.865Z,12.40
2019-05-20T12:37:18.681Z,11.17
2019-05-20T12:39:47.683Z,12.10
2019-05-20T12:42:16.482Z,11.60
2019-05-20T12:44:45.478Z,11.10
2019-05-20T12:47:14.329Z,9.67
2019-05-20T12:49:43.597Z,9.83
2019-05-20T12:52:12.518Z,11.27
2019-05-20T12:54:41.396Z,9.70
2019-05-20T12:57:10.344Z,9.90
2019-05-20T12:59:39.283Z,9.37
2019-05-20T13:02:08.145Z,9.87
2019-05-20T13:04:36.954Z,9.60
2019-05-20T13:07:05.772Z,10.80
2019-05-20T13:09:34.662Z,9.87
2019-05-20T13:12:03.616Z,9.43
2019-05-20T13:14:32.420Z,10.50
2019-05-20T13:17:01.624Z,10.40
2019-05-20T13:19:30.799Z,9.30
2019-05-20T13:22:00.032Z,10.90
2019-05-20T13:24:28.839Z,9.80
2019-05-20T13:26:57.632Z,9.73
2019-05-20T13:29:26.461Z,10.13
2019-05-20T13:31:55.251Z,9.40
2019-05-20T13:34:24.405Z,9.27
2019-05-20T13:36:53.710Z,9.70
2019-05-20T13:39:22.641Z,10.40
2019-05-20T13:41:51.463Z,11.37
2019-05-20T13:44:20.405Z,9.70
2019-05-20T13:46:49.297Z,9.00
2019-05-20T13:49:18.145Z,9.67
2019-05-20T13:51:46.957Z,9.30
2019-05-20T13:54:16.168Z,8.73
2019-05-20T13:56:45.130Z,9.50
2019-05-20T13:59:13.964Z,9.17
2019-05-20T14:01:42.756Z,8.60
2019-05-20T14:04:11.579Z,7.60
2019-05-20T14:06:41.072Z,9.80
2019-05-20T14:09:10.187Z,9.20
2019-05-20T14:11:39.060Z,10.57
2019-05-20T14:14:07.892Z,11.67
2019-05-20T14:16:36.718Z,9.73
2019-05-20T14:19:05.605Z,8.03
2019-05-20T14:21:34.445Z,9.40
2019-05-20T14:24:03.276Z,8.23
2019-05-20T14:26:32.381Z,7.67
2019-05-20T14:29:01.293Z,7.27
2019-05-20T14:31:30.173Z,8.23
2019-05-20T14:33:59.446Z,8.50
2019-05-20T14:36:39.346Z,7.67
2019-05-20T14:38:58.899Z,9.80
2019-05-20T14:41:27.769Z,9.83
2019-05-20T14:43:56.709Z,10.47
2019-05-20T14:46:25.653Z,10.17
2019-05-20T14:48:54.486Z,12.13
2019-05-20T14:51:23.331Z,12.50
2019-05-20T14:53:52.220Z,14.60
2019-05-20T14:56:21.637Z,15.20
2019-05-20T14:58:50.526Z,15.97
2019-05-20T15:01:19.352Z,18.43
2019-05-20T15:03:48.178Z,17.27
2019-05-20T15:06:17.010Z,15.70
2019-05-20T15:08:45.824Z,17.70
2019-05-20T15:11:15.033Z,16.10
2019-05-20T15:13:43.987Z,14.33
2019-05-20T15:16:12.841Z,14.07
2019-05-20T15:18:41.689Z,14.60
2019-05-20T15:21:10.563Z,13.20
2019-05-20T15:23:39.747Z,11.40
2019-05-20T15:26:08.647Z,9.53
2019-05-20T15:28:37.527Z,10.67
2019-05-20T15:31:06.369Z,7.97
2019-05-20T15:33:35.158Z,7.47
2019-05-20T15:36:04.137Z,7.47
2019-05-20T15:38:32.940Z,7.03
2019-05-20T15:41:01.845Z,7.07
2019-05-20T15:43:30.717Z,8.23
2019-05-20T15:45:59.609Z,9.20
2019-05-20T15:48:28.422Z,8.30
2019-05-20T15:50:57.315Z,8.77
2019-05-20T15:53:26.324Z,7.97
2019-05-20T15:55:55.282Z,8.90
2019-05-20T15:58:24.173Z,7.60
2019-05-20T16:00:53.348Z,8.00
2019-05-20T16:03:22.215Z,7.97
2019-05-20T16:05:51.307Z,8.60
2019-05-20T16:08:20.714Z,8.53
2019-05-20T16:10:49.577Z,7.83
2019-05-20T16:13:18.380Z,9.00
2019-05-20T16:15:47.265Z,9.40
2019-05-20T16:18:16.293Z,11.70
2019-05-20T16:20:45.279Z,11.10
2019-05-20T16:23:14.549Z,11.10
2019-05-20T16:25:44.302Z,10.30
2019-05-20T16:28:13.096Z,11.10
2019-05-20T16:30:41.936Z,10.17
2019-05-20T16:33:10.847Z,9.83
2019-05-20T16:35:39.664Z,9.80
2019-05-20T16:38:08.533Z,9.60
2019-05-20T16:40:37.448Z,9.97
2019-05-20T16:43:06.709Z,10.67
2019-05-20T16:45:35.634Z,10.47
2019-05-20T16:48:04.624Z,10.93
2019-05-20T16:50:33.595Z,11.60
2019-05-20T16:53:02.444Z,11.40
2019-05-20T16:55:31.422Z,12.87
2019-05-20T16:58:00.300Z,10.87
2019-05-20T17:00:32.042Z,10.40
2019-05-20T17:02:59.704Z,10.23
2019-05-20T17:05:28.582Z,10.00
2019-05-20T17:07:57.379Z,8.87
2019-05-20T17:10:26.517Z,8.60
2019-05-20T17:12:55.454Z,7.70
2019-05-20T17:15:24.424Z,7.57
2019-05-20T17:17:53.226Z,7.50
2019-05-20T17:20:22.369Z,7.73
2019-05-20T17:22:51.793Z,7.40
2019-05-20T17:25:20.587Z,8.80
2019-05-20T17:27:49.464Z,8.90
2019-05-20T17:30:18.793Z,8.40
2019-05-20T17:32:47.620Z,10.10
2019-05-20T17:35:16.570Z,9.27
2019-05-20T17:37:45.547Z,10.00
2019-05-20T17:40:15.082Z,9.20
2019-05-20T17:42:43.915Z,8.70
2019-05-20T17:45:14.928Z,10.17
2019-05-20T17:47:43.895Z,8.10
2019-05-20T17:50:13.198Z,9.10
2019-05-20T17:52:42.008Z,10.40
2019-05-20T17:55:11.263Z,10.70
2019-05-20T17:57:40.068Z,10.53
2019-05-20T18:00:11.717Z,10.23
2019-05-20T18:02:40.521Z,9.80
2019-05-20T18:05:09.581Z,11.80
2019-05-20T18:07:38.460Z,10.00
2019-05-20T18:10:08.379Z,8.90
2019-05-20T18:12:37.505Z,9.57
2019-05-20T18:15:07.076Z,9.70
2019-05-20T18:17:36.424Z,9.53
2019-05-20T18:20:05.863Z,9.80
2019-05-20T18:22:35.437Z,9.60
2019-05-20T18:25:04.517Z,11.00
2019-05-20T18:27:33.365Z,10.97
2019-05-20T18:30:02.334Z,12.23
2019-05-20T18:32:31.655Z,11.10
2019-05-20T18:35:00.488Z,11.43
2019-05-20T18:37:30.213Z,11.70
2019-05-20T18:40:12.793Z,11.67
2019-05-20T18:42:29.808Z,11.40
2019-05-20T18:44:58.719Z,12.33
2019-05-20T18:47:27.669Z,11.20
2019-05-20T18:49:56.540Z,10.87
2019-05-20T18:52:25.437Z,10.13
2019-05-20T18:54:54.309Z,9.83
2019-05-20T18:57:23.197Z,10.90
2019-05-20T18:59:52.256Z,12.27
2019-05-20T19:02:21.484Z,12.43
2019-05-20T19:04:50.963Z,12.60
2019-05-20T19:07:20.187Z,11.53
2019-05-20T19:09:49.402Z,11.23
2019-05-20T19:12:18.770Z,10.83
2019-05-20T19:14:48.117Z,11.60
2019-05-20T19:17:17.028Z,12.67
2019-05-20T19:19:46.011Z,11.80
2019-05-20T19:22:14.912Z,13.23
2019-05-20T19:24:44.096Z,11.27
2019-05-20T19:27:13.053Z,10.00
2019-05-20T19:29:42.406Z,11.60
2019-05-20T19:32:11.877Z,11.83
2019-05-20T19:34:40.694Z,10.07
2019-05-20T19:37:09.596Z,11.50
2019-05-20T19:39:38.386Z,10.17
2019-05-20T19:42:07.235Z,11.17
2019-05-20T19:44:36.333Z,9.87
2019-05-20T19:47:05.229Z,9.70
2019-05-20T19:49:34.363Z,10.00
2019-05-20T19:52:03.181Z,11.17
2019-05-20T19:54:32.334Z,10.97
2019-05-20T19:57:01.305Z,11.40
2019-05-20T19:59:30.265Z,11.07
2019-05-20T20:02:18.339Z,9.50
2019-05-20T20:04:47.300Z,8.80
2019-05-20T20:07:16.103Z,7.43
2019-05-20T20:09:44.980Z,8.37
2019-05-20T20:12:13.856Z,7.70
2019-05-20T20:14:42.675Z,8.13
2019-05-20T20:17:11.748Z,8.33
2019-05-20T20:19:40.829Z,7.97
2019-05-20T20:22:09.699Z,7.70
2019-05-20T20:24:39.201Z,9.00
2019-05-20T20:27:08.359Z,8.57
2019-05-20T20:29:37.370Z,9.10
2019-05-20T20:32:06.190Z,7.70
2019-05-20T20:34:35.137Z,7.70
2019-05-20T20:37:04.059Z,8.07
2019-05-20T20:39:34.489Z,8.37
2019-05-20T20:42:03.765Z,8.23
2019-05-20T20:44:33.016Z,8.83
2019-05-20T20:47:01.805Z,9.50
2019-05-20T20:49:30.655Z,9.90
2019-05-20T20:51:59.469Z,10.30
2019-05-20T20:54:28.268Z,9.73
2019-05-20T20:56:57.344Z,10.80
2019-05-20T20:59:26.460Z,9.50
2019-05-20T21:01:59.004Z,9.77
2019-05-20T21:04:25.820Z,10.33
2019-05-20T21:06:54.892Z,10.37
2019-05-20T21:09:24.050Z,11.90
2019-05-20T21:11:53.002Z,12.20
2019-05-20T21:14:21.873Z,12.90
2019-05-20T21:16:50.784Z,13.60
2019-05-20T21:19:19.841Z,13.00
2019-05-20T21:21:48.656Z,11.63
2019-05-20T21:24:17.473Z,11.90
2019-05-20T21:26:46.301Z,11.47
2019-05-20T21:29:15.120Z,11.50
2019-05-20T21:31:44.273Z,11.40
2019-05-20T21:34:13.162Z,13.30
2019-05-20T21:36:47.557Z,10.67
2019-05-20T21:39:12.560Z,11.37
2019-05-20T21:41:41.715Z,13.70
2019-05-20T21:44:10.602Z,14.17
2019-05-20T21:46:39.427Z,15.50
2019-05-20T21:49:08.308Z,20.50
2019-05-20T21:51:37.244Z,25.00
2019-05-20T21:54:06.064Z,29.40
2019-05-20T21:56:35.190Z,31.97
2019-05-20T21:59:04.181Z,32.87
2019-05-20T22:01:33.366Z,31.00
2019-05-20T22:04:02.745Z,31.37
2019-05-20T22:06:31.557Z,36.47
2019-05-20T22:09:00.364Z,35.47
2019-05-20T22:11:29.814Z,35.93
2019-05-20T22:13:58.831Z,33.73
2019-05-20T22:16:29.737Z,33.00
2019-05-20T22:18:59.191Z,33.97
2019-05-20T22:21:33.198Z,35.00
2019-05-20T22:24:04.141Z,33.00
2019-05-20T22:26:32.936Z,33.77
2019-05-20T22:29:01.776Z,32.50
2019-05-20T22:31:30.708Z,34.13
2019-05-20T22:33:59.765Z,33.90
2019-05-20T22:36:28.568Z,34.07
2019-05-20T22:38:57.377Z,33.03
2019-05-20T22:41:26.189Z,34.60
2019-05-20T22:43:55.090Z,31.97
2019-05-20T22:46:23.946Z,32.90
2019-05-20T22:48:52.741Z,32.77
2019-05-20T22:51:21.553Z,34.37
2019-05-20T22:53:50.373Z,31.37
2019-05-20T22:56:19.696Z,33.17
2019-05-20T22:58:48.568Z,31.73
2019-05-20T23:01:17.808Z,29.97
2019-05-20T23:03:56.147Z,31.60
2019-05-20T23:06:17.454Z,29.93
2019-05-20T23:08:46.258Z,31.23
2019-05-20T23:11:15.402Z,30.50
2019-05-20T23:13:44.250Z,31.40
2019-05-20T23:16:13.077Z,28.47
2019-05-20T23:18:41.906Z,25.67
2019-05-20T23:21:10.861Z,27.20
2019-05-20T23:23:39.656Z,26.83
2019-05-20T23:26:08.477Z,25.83
2019-05-20T23:28:37.388Z,25.27
2019-05-20T23:31:06.491Z,27.33
2019-05-20T23:33:35.417Z,26.87
2019-05-20T23:36:04.352Z,28.20
2019-05-20T23:38:33.185Z,27.40
2019-05-20T23:41:02.135Z,30.60
2019-05-20T23:43:31.124Z,33.53
2019-05-20T23:45:59.952Z,28.63
2019-05-20T23:48:29.028Z,31.17
2019-05-20T23:50:58.150Z,31.10
2019-05-20T23:53:27.230Z,32.70
2019-05-20T23:55:56.443Z,32.03
2019-05-20T23:58:25.313Z,30.33
